Time;durP1;ratioP1;P1;durP2;ratioP2;P2;SDS_P1;SDS_P2;PMS_P1;PMS_P2;Temp;Humidity;BMP_temperature;BMP_pressure;BME280_temperature;BME280_humidity;BME280_pressure;Samples;Min_cycle;Max_cycle;Signal;HPM_P1;HPM_P2
2021/01/20 00:01:20;;;;;;;30.43;17.07;;;;;;;-4.63;67.14;101352.56;5028797;28;20036;-79
2021/01/20 00:03:45;;;;;;;33.03;17.43;;;;;;;-4.60;67.05;101357.94;5028847;28;20033;-80
2021/01/20 00:06:11;;;;;;;30.93;18.13;;;;;;;-4.31;67.75;101413.19;5009498;28;20052;-83
2021/01/20 00:08:36;;;;;;;29.83;17.50;;;;;;;-4.34;67.26;101408.72;5028157;28;20088;-83
2021/01/20 00:11:02;;;;;;;28.00;16.93;;;;;;;-4.27;67.22;101426.31;5014942;28;20038;-82
2021/01/20 00:13:27;;;;;;;31.90;18.80;;;;;;;-4.34;67.51;101417.91;5032797;28;20068;-82
2021/01/20 00:15:53;;;;;;;33.53;19.67;;;;;;;-4.40;67.63;101416.50;5032433;28;20128;-82
2021/01/20 00:18:18;;;;;;;34.30;18.60;;;;;;;-4.35;67.89;101432.13;5015957;28;20071;-82
2021/01/20 00:20:44;;;;;;;34.83;19.27;;;;;;;-4.39;67.80;101427.47;5017075;28;20143;-82
2021/01/20 00:23:10;;;;;;;35.70;17.43;;;;;;;-4.69;68.10;101382.13;5034806;28;20175;-82
2021/01/20 00:25:36;;;;;;;32.47;17.83;;;;;;;-4.55;68.08;101410.66;5012747;28;20045;-81
2021/01/20 00:28:02;;;;;;;34.20;18.50;;;;;;;-4.48;68.08;101431.50;5012738;28;20042;-82
2021/01/20 00:30:27;;;;;;;33.33;18.70;;;;;;;-4.48;67.61;101428.97;5012459;28;20026;-83
2021/01/20 00:32:53;;;;;;;32.07;18.90;;;;;;;-4.44;67.81;101434.50;4997829;28;20512;-83
2021/01/20 00:35:22;;;;;;;34.60;18.67;;;;;;;-4.52;67.92;101416.75;4992490;28;20617;-83
2021/01/20 00:38:04;;;;;;;32.00;18.40;;;;;;;-4.49;67.91;101422.13;4993466;28;20034;-82
2021/01/20 00:40:30;;;;;;;33.57;19.33;;;;;;;-4.53;68.21;101425.94;4996748;28;20510;-82
2021/01/20 00:42:56;;;;;;;33.63;19.70;;;;;;;-4.78;67.95;101374.41;4995772;28;20038;-81
2021/01/20 00:45:21;;;;;;;33.40;19.17;;;;;;;-4.52;68.34;101429.34;5011878;28;20499;-82
2021/01/20 00:47:46;;;;;;;35.70;19.03;;;;;;;-4.89;68.74;101375.72;5011969;28;20135;-81
2021/01/20 00:50:12;;;;;;;29.77;17.50;;;;;;;-4.68;68.21;101404.94;5012414;28;20025;-81
2021/01/20 00:52:37;;;;;;;32.73;18.93;;;;;;;-4.64;68.62;101416.28;5012721;28;20029;-81
2021/01/20 00:55:03;;;;;;;36.03;19.67;;;;;;;-4.60;68.35;101408.31;5012773;28;20548;-81
2021/01/20 00:57:29;;;;;;;35.47;20.03;;;;;;;-4.66;68.63;101410.16;5012542;28;20029;-81
2021/01/20 00:59:54;;;;;;;33.73;19.53;;;;;;;-4.67;68.55;101413.41;5012558;28;20033;-81
2021/01/20 01:02:20;;;;;;;36.37;20.07;;;;;;;-4.72;68.73;101417.94;5012226;28;20063;-81
2021/01/20 01:04:45;;;;;;;31.80;19.00;;;;;;;-4.84;69.20;101412.41;5012899;28;20411;-81
2021/01/20 01:07:11;;;;;;;30.33;18.77;;;;;;;-4.80;69.29;101416.16;5012362;28;20437;-81
2021/01/20 01:09:36;;;;;;;34.80;18.70;;;;;;;-4.84;69.45;101406.47;5015295;28;20099;-81
2021/01/20 01:12:03;;;;;;;32.43;18.80;;;;;;;-4.68;69.32;101420.06;5034626;28;20040;-81
2021/01/20 01:14:29;;;;;;;31.63;17.93;;;;;;;-4.65;69.01;101420.41;5049540;28;20033;-81
2021/01/20 01:16:54;;;;;;;33.20;18.50;;;;;;;-4.61;68.55;101417.53;5034325;28;20445;-81
2021/01/20 01:19:20;;;;;;;34.47;18.83;;;;;;;-4.74;68.76;101405.16;5049736;28;20033;-81
2021/01/20 01:21:46;;;;;;;36.73;19.03;;;;;;;-4.66;69.33;101420.22;5049261;28;20391;-81
2021/01/20 01:24:11;;;;;;;31.67;19.47;;;;;;;-4.76;69.46;101421.72;5066360;28;20029;-80
2021/01/20 01:26:37;;;;;;;35.27;19.10;;;;;;;-5.01;69.23;101367.66;5049612;28;20029;-81
2021/01/20 01:29:02;;;;;;;31.43;18.07;;;;;;;-4.77;69.33;101421.53;5033874;28;20033;-81
2021/01/20 01:31:27;;;;;;;31.97;17.13;;;;;;;-4.75;69.74;101410.03;5066076;28;20042;-81
2021/01/20 01:33:53;;;;;;;31.43;17.83;;;;;;;-4.78;69.64;101415.59;5049447;28;20552;-81
2021/01/20 01:36:18;;;;;;;31.57;17.03;;;;;;;-4.80;69.52;101414.53;5066048;28;20028;-81
2021/01/20 01:38:44;;;;;;;30.33;17.63;;;;;;;-4.78;69.15;101412.22;5034060;28;20034;-80
2021/01/20 01:41:09;;;;;;;32.13;17.63;;;;;;;-4.80;68.92;101412.00;5033921;28;20061;-81
2021/01/20 01:43:35;;;;;;;29.50;17.03;;;;;;;-4.81;69.19;101409.31;5033778;28;20025;-80
2021/01/20 01:46:00;;;;;;;32.67;17.23;;;;;;;-5.10;69.17;101369.16;5049028;28;20022;-81
2021/01/20 01:48:26;;;;;;;30.77;17.10;;;;;;;-4.79;69.21;101423.88;5033457;28;20478;-80
2021/01/20 01:50:51;;;;;;;33.63;17.60;;;;;;;-4.86;69.70;101416.34;5033514;28;20039;-80
2021/01/20 01:53:17;;;;;;;34.43;18.77;;;;;;;-4.92;69.38;101410.63;5065806;28;20072;-80
2021/01/20 01:55:43;;;;;;;32.63;18.07;;;;;;;-4.90;69.58;101417.66;5034029;28;20109;-81
2021/01/20 01:58:08;;;;;;;30.93;17.80;;;;;;;-4.91;69.79;101427.53;5065334;28;20052;-80
2021/01/20 02:00:34;;;;;;;30.73;16.70;;;;;;;-5.02;70.02;101436.41;5048719;28;20120;-80
2021/01/20 02:03:02;;;;;;;35.37;18.03;;;;;;;-5.04;70.39;101432.81;5048966;28;20125;-81
2021/01/20 02:05:30;;;;;;;32.73;17.57;;;;;;;-5.05;70.73;101444.50;5065281;28;20029;-80
2021/01/20 02:07:57;;;;;;;32.37;17.10;;;;;;;-5.08;70.77;101435.69;5033336;28;20561;-80
2021/01/20 02:10:22;;;;;;;34.43;17.30;;;;;;;-5.14;70.35;101433.38;5065279;28;20400;-81
2021/01/20 02:12:48;;;;;;;30.87;17.90;;;;;;;-5.03;70.69;101444.69;5033733;28;20029;-81
2021/01/20 02:15:37;;;;;;;31.43;18.13;;;;;;;-5.07;70.16;101440.91;5033168;28;20112;-80
2021/01/20 02:18:10;;;;;;;31.17;17.60;;;;;;;-5.08;69.83;101434.06;5032994;28;20037;-80
2021/01/20 02:20:58;;;;;;;32.57;18.60;;;;;;;-5.00;70.01;101441.59;5033280;28;20108;-80
2021/01/20 02:23:26;;;;;;;31.53;18.37;;;;;;;-5.01;70.03;101427.22;5032752;28;20040;-80
2021/01/20 02:26:13;;;;;;;30.00;18.03;;;;;;;-4.98;69.36;101435.13;5065169;28;20032;-80
2021/01/20 02:28:55;;;;;;;30.83;17.80;;;;;;;-4.96;69.71;101441.22;5048419;28;20087;-80
2021/01/20 02:31:25;;;;;;;31.80;19.20;;;;;;;-4.95;69.49;101435.47;5032786;28;20440;-80
2021/01/20 02:33:52;;;;;;;;;;;;;;;-4.91;69.14;101427.53;5064499;28;20025;-80
2021/01/20 02:36:20;;;;;;;33.47;18.87;;;;;;;-5.28;69.17;101371.38;5032918;28;19970;-80
2021/01/20 02:38:47;;;;;;;35.50;18.93;;;;;;;-5.26;69.91;101379.09;5064889;28;20411;-81
2021/01/20 02:41:29;;;;;;;32.63;19.43;;;;;;;-5.09;69.44;101407.09;5064862;28;20167;-82
2021/01/20 02:44:02;;;;;;;41.53;22.23;;;;;;;-4.96;69.53;101416.97;5064713;28;20415;-81
2021/01/20 02:46:29;;;;;;;40.80;21.23;;;;;;;-5.10;69.58;101400.25;5064589;28;20118;-82
2021/01/20 02:48:56;;;;;;;44.37;25.47;;;;;;;-5.05;69.56;101416.81;5032364;28;20064;-81
2021/01/20 02:51:50;;;;;;;47.17;25.50;;;;;;;-5.03;70.02;101419.50;5064408;28;20129;-82
2021/01/20 02:54:18;;;;;;;43.53;23.80;;;;;;;-4.99;69.66;101416.59;5032795;28;20052;-81
2021/01/20 02:56:47;;;;;;;44.73;24.93;;;;;;;-5.13;70.12;101406.59;5032630;28;20047;-81
2021/01/20 02:59:13;;;;;;;45.65;24.42;;;;;;;-5.22;70.60;101407.31;5064552;28;20061;-82
2021/01/20 03:01:42;;;;;;;43.63;24.30;;;;;;;-5.23;70.12;101399.59;5049180;28;20127;-81
2021/01/20 03:04:10;;;;;;;43.05;24.35;;;;;;;-5.05;70.21;101413.38;5051141;28;20032;-81
2021/01/20 03:06:36;;;;;;;46.40;25.90;;;;;;;-5.10;69.57;101406.91;5050913;28;20103;-81
2021/01/20 03:09:04;;;;;;;45.77;26.07;;;;;;;-5.11;69.83;101416.09;5050613;28;20036;-81
2021/01/20 03:11:29;;;;;;;46.93;24.77;;;;;;;-5.19;70.21;101409.28;5052078;28;20051;-81
2021/01/20 03:13:55;;;;;;;43.63;25.37;;;;;;;-5.29;70.39;101392.22;5051912;28;20444;-82
2021/01/20 03:16:29;;;;;;;47.60;26.43;;;;;;;-5.38;70.63;101384.50;5051885;28;20108;-82
2021/01/20 03:18:54;;;;;;;47.67;28.43;;;;;;;-5.22;70.66;101411.44;5050379;28;20028;-82
2021/01/20 03:21:21;;;;;;;46.63;26.43;;;;;;;-5.27;70.35;101397.44;5049925;28;20024;-83
2021/01/20 03:23:46;;;;;;;48.40;26.20;;;;;;;-5.22;70.87;101424.94;5049647;28;20445;-82
2021/01/20 03:26:12;;;;;;;49.90;27.63;;;;;;;-5.36;71.15;101412.38;5051649;28;20503;-81
2021/01/20 03:28:37;;;;;;;47.73;25.23;;;;;;;-5.41;71.34;101414.38;5051224;28;20029;-81
2021/01/20 03:31:03;;;;;;;47.40;23.60;;;;;;;-5.47;71.90;101408.63;5049154;28;20020;-81
2021/01/20 03:33:28;;;;;;;43.70;24.63;;;;;;;-5.43;71.50;101433.41;5050219;28;20029;-81
2021/01/20 03:35:54;;;;;;;41.70;24.10;;;;;;;-5.41;71.84;101429.47;5050540;28;20028;-82
2021/01/20 03:38:19;;;;;;;45.17;23.33;;;;;;;-5.47;71.67;101411.16;5049507;28;20021;-81
2021/01/20 03:40:45;;;;;;;38.93;20.80;;;;;;;-5.52;71.63;101415.66;5050271;28;20033;-81
2021/01/20 03:43:10;;;;;;;39.93;22.20;;;;;;;-5.60;72.35;101412.97;5050407;28;20017;-81
2021/01/20 03:45:36;;;;;;;41.37;22.23;;;;;;;-5.58;71.98;101414.94;5050488;28;20028;-81
2021/01/20 03:48:01;;;;;;;41.00;21.63;;;;;;;-5.47;72.08;101435.41;5050382;28;20072;-81
2021/01/20 03:50:27;;;;;;;40.60;20.97;;;;;;;-5.52;72.14;101429.81;5051570;28;20171;-81
2021/01/20 03:52:52;;;;;;;40.90;21.57;;;;;;;-5.56;72.23;101417.63;5050002;28;20486;-82
2021/01/20 03:55:18;;;;;;;38.20;22.10;;;;;;;-5.49;71.81;101414.22;5050335;28;20029;-81
2021/01/20 03:57:43;;;;;;;36.97;22.23;;;;;;;-5.50;72.06;101425.88;5050216;28;20028;-81
2021/01/20 04:00:09;;;;;;;41.37;21.03;;;;;;;-5.85;72.25;101344.72;5050299;28;20398;-81
2021/01/20 04:02:35;;;;;;;36.27;20.13;;;;;;;-5.69;71.53;101357.44;5050259;28;20032;-81
2021/01/20 04:05:00;;;;;;;34.47;19.00;;;;;;;-5.55;72.44;101401.81;5050285;28;20031;-81
2021/01/20 04:07:25;;;;;;;36.00;20.73;;;;;;;-5.49;71.88;101415.09;5049970;28;20583;-81
2021/01/20 04:09:51;;;;;;;36.07;19.30;;;;;;;-5.80;72.52;101383.84;5050028;28;20040;-81
2021/01/20 04:12:16;;;;;;;37.73;19.47;;;;;;;-5.55;72.95;101420.31;5048769;28;20099;-81
2021/01/20 04:14:42;;;;;;;37.47;19.77;;;;;;;-5.50;72.54;101430.03;5048984;28;20096;-81
2021/01/20 04:17:07;;;;;;;40.13;19.60;;;;;;;-5.59;72.49;101424.81;5032203;28;20045;-81
2021/01/20 04:19:33;;;;;;;34.13;18.53;;;;;;;-5.47;72.35;101437.91;5032324;28;20036;-80
2021/01/20 04:21:58;;;;;;;33.13;17.90;;;;;;;-5.49;72.44;101430.19;5027889;28;20041;-81
2021/01/20 04:24:24;;;;;;;34.20;19.40;;;;;;;-5.64;73.06;101421.75;5031077;28;20040;-81
2021/01/20 04:26:49;;;;;;;33.80;18.63;;;;;;;-5.62;73.18;101419.41;5029716;28;20127;-81
2021/01/20 04:29:16;;;;;;;39.23;21.30;;;;;;;-5.56;73.00;101432.72;5048479;28;20486;-82
2021/01/20 04:31:42;;;;;;;40.60;20.30;;;;;;;-5.56;72.55;101433.63;5032043;28;20043;-81
2021/01/20 04:34:07;;;;;;;34.60;19.27;;;;;;;-5.55;72.73;101434.50;5048907;28;20485;-82
2021/01/20 04:36:33;;;;;;;37.37;20.73;;;;;;;-5.53;72.59;101435.59;5048674;28;20099;-81
2021/01/20 04:38:59;;;;;;;37.17;20.10;;;;;;;-5.50;72.50;101440.09;5032075;28;20132;-81
2021/01/20 04:41:24;;;;;;;39.07;19.10;;;;;;;-5.56;73.00;101435.22;5032097;28;20068;-81
2021/01/20 04:43:49;;;;;;;37.53;21.67;;;;;;;-5.59;73.25;101437.41;5044252;28;20037;-81
2021/01/20 04:46:16;;;;;;;38.03;19.97;;;;;;;-5.54;73.12;101433.81;5051224;28;20083;-81
2021/01/20 04:48:43;;;;;;;36.40;18.67;;;;;;;-5.97;73.30;101381.00;5049557;28;20049;-81
2021/01/20 04:51:09;;;;;;;37.67;20.47;;;;;;;-5.65;73.31;101441.72;5049801;28;20033;-81
2021/01/20 04:53:38;;;;;;;40.33;20.53;;;;;;;-5.73;73.00;101424.09;5049865;28;20033;-82
2021/01/20 04:56:12;;;;;;;35.95;19.17;;;;;;;-5.58;73.69;101456.78;5051247;28;20059;-82
2021/01/20 04:58:38;;;;;;;36.40;19.97;;;;;;;-5.54;73.71;101453.94;5054736;28;20025;-81
2021/01/20 05:01:03;;;;;;;33.63;18.77;;;;;;;-5.54;73.65;101464.00;5054385;28;20033;-81
2021/01/20 05:03:29;;;;;;;36.57;19.90;;;;;;;-5.55;73.74;101452.13;5054484;28;20037;-81
2021/01/20 05:05:55;;;;;;;34.10;17.97;;;;;;;-5.48;73.40;101467.22;5052837;28;20025;-82
2021/01/20 05:08:22;;;;;;;34.37;18.27;;;;;;;-5.43;74.02;101477.81;5053158;28;20044;-81
2021/01/20 05:10:51;;;;;;;28.87;16.97;;;;;;;-5.50;73.77;101463.63;5053364;28;20509;-82
2021/01/20 05:13:28;;;;;;;32.67;18.30;;;;;;;-5.41;74.18;101474.78;5053337;28;20501;-82
2021/01/20 05:15:55;;;;;;;32.93;18.30;;;;;;;-5.40;73.90;101479.06;5052953;28;20033;-82
2021/01/20 05:18:21;;;;;;;32.90;18.23;;;;;;;-5.27;73.28;101483.94;5053032;28;20183;-81
2021/01/20 05:20:47;;;;;;;35.27;19.20;;;;;;;-5.26;73.67;101485.72;5054126;28;20021;-82
2021/01/20 05:23:13;;;;;;;34.93;18.33;;;;;;;-5.21;73.21;101477.09;5052998;28;20021;-81
2021/01/20 05:25:48;;;;;;;33.53;17.93;;;;;;;-5.52;72.91;101425.72;5054286;28;20029;-82
2021/01/20 05:28:36;;;;;;;31.80;18.67;;;;;;;-5.13;73.40;101467.00;5054461;28;20029;-81
2021/01/20 05:31:03;;;;;;;40.30;17.90;;;;;;;-5.20;73.19;101473.84;5054022;28;20035;-82
2021/01/20 05:33:33;;;;;;;42.97;18.83;;;;;;;-5.36;72.88;101427.47;5052774;28;20021;-82
2021/01/20 05:36:10;;;;;;;34.40;18.67;;;;;;;-5.15;73.28;101468.44;5052727;28;20086;-82
2021/01/20 05:38:46;;;;;;;39.63;20.30;;;;;;;-5.21;73.68;101478.69;5054189;28;20025;-82
2021/01/20 05:41:18;;;;;;;33.03;17.97;;;;;;;-5.15;73.37;101488.59;5054088;28;20029;-81
2021/01/20 05:43:44;;;;;;;38.53;20.90;;;;;;;-5.15;73.79;101483.53;5053934;28;20032;-82
2021/01/20 05:46:10;;;;;;;37.80;21.53;;;;;;;-5.35;74.01;101456.94;5052640;28;20042;-82
2021/01/20 05:48:47;;;;;;;41.73;22.03;;;;;;;-5.09;74.03;101504.41;5053372;28;20525;-82
2021/01/20 05:51:13;;;;;;;46.33;24.80;;;;;;;-5.16;74.33;101494.34;5053582;28;20107;-82
2021/01/20 05:53:55;;;;;;;42.60;23.43;;;;;;;-5.02;74.15;101501.88;5051117;28;20136;-82
2021/01/20 05:56:29;;;;;;;39.97;21.43;;;;;;;-4.85;74.02;101521.44;5059205;28;20405;-82
2021/01/20 05:58:56;;;;;;;37.37;20.37;;;;;;;-4.78;74.12;101508.81;5057131;28;20490;-81
2021/01/20 06:01:22;;;;;;;35.47;20.63;;;;;;;-4.67;73.73;101506.63;5043124;28;20071;-82
2021/01/20 06:03:48;;;;;;;37.53;21.33;;;;;;;-4.67;73.48;101512.56;5034340;28;20112;-82
2021/01/20 06:06:15;;;;;;;38.37;20.67;;;;;;;-4.67;73.48;101497.47;5034234;28;20499;-82
2021/01/20 06:08:40;;;;;;;45.87;23.97;;;;;;;-4.53;72.99;101505.69;5034193;28;20041;-81
2021/01/20 06:11:06;;;;;;;37.07;21.70;;;;;;;-4.40;72.29;101514.81;5034408;28;20033;-82
2021/01/20 06:13:33;;;;;;;37.90;22.10;;;;;;;-4.40;72.56;101518.94;5034164;28;20051;-81
2021/01/20 06:16:05;;;;;;;40.90;23.03;;;;;;;-4.30;72.79;101520.88;5034216;28;20502;-82
2021/01/20 06:18:39;;;;;;;41.93;23.33;;;;;;;-4.30;72.07;101513.31;5034093;28;20126;-82
2021/01/20 06:21:04;;;;;;;47.83;22.73;;;;;;;-4.19;71.91;101528.03;5033152;28;20024;-82
2021/01/20 06:23:35;;;;;;;42.43;22.57;;;;;;;-4.27;72.08;101521.25;5038780;28;20095;-73
2021/01/20 06:26:11;;;;;;;41.70;23.40;;;;;;;-4.22;71.94;101520.13;5050435;28;20025;-74
2021/01/20 06:28:54;;;;;;;40.97;23.33;;;;;;;-4.11;72.88;101533.94;5053961;28;20540;-74
2021/01/20 06:31:21;;;;;;;54.10;28.83;;;;;;;-3.98;72.74;101548.84;5052266;28;20064;-77
2021/01/20 06:33:47;;;;;;;53.17;29.33;;;;;;;-4.24;72.81;101499.81;5051802;28;20024;-78
2021/01/20 06:36:38;;;;;;;66.63;38.50;;;;;;;-3.98;71.63;101552.25;5051845;28;20025;-78
2021/01/20 06:39:29;;;;;;;57.83;33.70;;;;;;;-3.97;71.90;101553.16;5051233;28;20029;-78
2021/01/20 06:41:55;;;;;;;42.53;22.43;;;;;;;-4.08;72.07;101539.34;5051351;28;20025;-78
2021/01/20 06:44:21;;;;;;;43.60;23.47;;;;;;;-4.08;72.25;101540.22;5051221;28;20025;-78
2021/01/20 06:47:05;;;;;;;43.63;24.17;;;;;;;-4.10;71.87;101554.31;5052173;28;20027;-79
2021/01/20 06:49:32;;;;;;;44.30;23.67;;;;;;;-4.40;72.14;101499.69;5050428;28;20057;-79
2021/01/20 06:52:13;;;;;;;41.63;22.73;;;;;;;-3.99;72.12;101559.66;5052402;28;20442;-78
2021/01/20 06:54:43;;;;;;;48.07;26.60;;;;;;;-4.20;72.41;101518.66;5051841;28;20044;-79
2021/01/20 06:57:31;;;;;;;45.00;24.10;;;;;;;-3.95;72.66;101551.69;5049938;28;20094;-79
2021/01/20 07:00:05;;;;;;;47.87;26.73;;;;;;;-3.91;72.20;101558.91;5032512;28;20032;-79
2021/01/20 07:02:31;;;;;;;46.60;28.87;;;;;;;-3.80;72.44;101568.56;5031815;28;20029;-79
2021/01/20 07:04:57;;;;;;;41.40;22.57;;;;;;;-3.83;71.76;101553.06;5032075;28;20033;-79
2021/01/20 07:07:47;;;;;;;40.50;20.93;;;;;;;-3.67;71.64;101560.72;5032156;28;20029;-79
2021/01/20 07:10:27;;;;;;;40.43;22.23;;;;;;;-3.67;71.42;101559.84;5031849;28;20105;-80
2021/01/20 07:13:10;;;;;;;41.93;23.80;;;;;;;-3.63;71.40;101567.00;5030389;28;20103;-79
2021/01/20 07:15:56;;;;;;;41.27;23.57;;;;;;;-3.55;71.53;101563.72;5037661;28;20087;-79
2021/01/20 07:18:24;;;;;;;36.77;21.37;;;;;;;-3.60;71.42;101559.75;5050797;28;20045;-79
2021/01/20 07:20:50;;;;;;;38.87;22.40;;;;;;;-3.62;71.47;101564.66;5052181;28;20029;-79
2021/01/20 07:23:16;;;;;;;37.00;21.80;;;;;;;-3.73;71.79;101560.03;5050425;28;20040;-80
2021/01/20 07:25:46;;;;;;;37.33;21.10;;;;;;;-3.69;71.24;101557.13;5049889;28;20416;-79
2021/01/20 07:28:12;;;;;;;40.20;21.57;;;;;;;-3.92;71.43;101521.78;5051588;28;20025;-80
2021/01/20 07:30:37;;;;;;;40.10;22.90;;;;;;;-3.60;71.40;101567.34;5051295;28;20036;-80
2021/01/20 07:33:15;;;;;;;43.07;22.33;;;;;;;-3.58;71.87;101566.81;5050221;28;20112;-79
2021/01/20 07:35:41;;;;;;;44.07;24.57;;;;;;;-3.59;71.85;101574.19;5051510;28;20087;-80
2021/01/20 07:38:07;;;;;;;40.13;19.83;;;;;;;-3.54;71.52;101552.88;5052876;28;20028;-79
2021/01/20 07:40:35;;;;;;;38.73;22.27;;;;;;;-3.47;71.82;101560.41;5050298;28;20043;-80
2021/01/20 07:43:01;;;;;;;40.17;22.93;;;;;;;-3.41;72.29;101555.16;5050045;28;20035;-80
2021/01/20 07:45:38;;;;;;;37.33;21.37;;;;;;;-3.32;71.93;101553.63;5051477;28;20108;-80
2021/01/20 07:48:06;;;;;;;36.27;20.90;;;;;;;-3.28;71.34;101552.31;5051224;28;20049;-80
2021/01/20 07:50:46;;;;;;;40.90;22.07;;;;;;;-3.25;72.26;101552.69;5052137;28;20087;-79
2021/01/20 07:53:17;;;;;;;38.53;21.73;;;;;;;-3.18;71.86;101554.22;5050042;28;20029;-80
2021/01/20 07:55:45;;;;;;;36.97;20.07;;;;;;;-3.10;71.52;101554.34;5051343;28;20036;-80
2021/01/20 07:58:11;;;;;;;38.07;21.57;;;;;;;-3.07;71.07;101557.94;5051139;28;20029;-80
2021/01/20 08:00:41;;;;;;;34.37;19.40;;;;;;;-2.93;70.33;101562.84;5049311;28;20036;-79
2021/01/20 08:03:07;;;;;;;39.93;20.67;;;;;;;-3.02;70.89;101556.81;5051116;28;20068;-80
2021/01/20 08:05:33;;;;;;;39.83;21.60;;;;;;;-2.86;70.67;101580.47;5050962;28;20494;-79
2021/01/20 08:08:10;;;;;;;38.10;21.87;;;;;;;-3.02;70.08;101531.53;5050911;28;20465;-80
2021/01/20 08:10:36;;;;;;;35.30;20.27;;;;;;;-2.58;69.21;101570.78;5050953;28;20037;-79
2021/01/20 08:13:02;;;;;;;33.87;20.07;;;;;;;-2.48;69.10;101566.00;5050922;28;20025;-80
2021/01/20 08:15:31;;;;;;;36.93;20.07;;;;;;;-2.40;68.92;101578.56;5050804;28;20037;-79
2021/01/20 08:17:57;;;;;;;35.63;19.58;;;;;;;-2.36;68.53;101575.63;5051172;28;20487;-79
2021/01/20 08:20:24;;;;;;;33.00;17.63;;;;;;;-2.40;68.45;101564.28;5049802;28;20036;-79
2021/01/20 08:22:50;;;;;;;31.90;19.07;;;;;;;-2.31;68.62;101564.38;5050718;28;20017;-79
2021/01/20 08:25:21;;;;;;;34.93;19.50;;;;;;;-2.15;68.63;101577.00;5049022;28;20102;-79
2021/01/20 08:27:47;;;;;;;34.97;20.10;;;;;;;-2.09;68.22;101567.53;5042496;28;20104;-79
2021/01/20 08:30:27;;;;;;;36.50;21.47;;;;;;;-1.99;67.99;101575.34;5050300;28;20611;-79
2021/01/20 08:32:54;;;;;;;32.93;19.23;;;;;;;-1.91;67.64;101566.00;5066559;28;20021;-80
2021/01/20 08:35:34;;;;;;;36.47;18.40;;;;;;;-1.90;67.61;101569.47;5074907;28;20021;-80
2021/01/20 08:38:01;;;;;;;38.77;21.87;;;;;;;-1.74;67.19;101577.03;5067268;28;20021;-79
2021/01/20 08:40:27;;;;;;;39.63;23.43;;;;;;;-1.71;67.52;101552.00;5052026;28;20076;-79
2021/01/20 08:42:53;;;;;;;37.87;21.77;;;;;;;-1.48;67.49;101567.94;5053590;28;20448;-79
2021/01/20 08:45:21;;;;;;;35.77;21.40;;;;;;;-1.72;66.77;101500.50;5054661;28;20063;-79
2021/01/20 08:47:46;;;;;;;35.00;20.23;;;;;;;-1.23;66.83;101567.03;5053295;28;20185;-80
2021/01/20 08:50:17;;;;;;;35.13;20.30;;;;;;;-1.08;66.41;101570.22;5055289;28;20041;-79
2021/01/20 08:52:44;;;;;;;30.53;18.10;;;;;;;-0.98;66.10;101558.63;5054818;28;20090;-79
2021/01/20 08:55:19;;;;;;;32.20;19.40;;;;;;;-1.12;65.84;101518.34;5053309;28;20032;-80
2021/01/20 08:57:44;;;;;;;31.37;20.53;;;;;;;-0.70;65.28;101552.88;5054683;28;20035;-79
2021/01/20 09:00:10;;;;;;;35.57;17.60;;;;;;;-0.64;63.78;101555.13;5054321;28;20386;-80
2021/01/20 09:02:36;;;;;;;28.70;17.07;;;;;;;-0.67;63.83;101546.47;5051621;28;20562;-80
2021/01/20 09:05:02;;;;;;;31.17;18.60;;;;;;;-0.54;63.10;101547.69;5035234;28;20047;-80
2021/01/20 09:07:27;;;;;;;29.33;17.63;;;;;;;-1.33;63.26;101423.34;5051321;28;20084;-79
2021/01/20 09:09:53;;;;;;;34.83;18.83;;;;;;;-0.56;62.92;101545.00;5068246;28;20031;-79
2021/01/20 09:12:18;;;;;;;29.23;18.13;;;;;;;-0.48;63.03;101534.72;5051739;28;20033;-79
2021/01/20 09:14:45;;;;;;;35.00;19.43;;;;;;;-0.54;63.30;101538.41;5035157;28;20413;-80
2021/01/20 09:17:11;;;;;;;36.70;22.03;;;;;;;-0.38;63.42;101535.75;5034719;28;20021;-79
2021/01/20 09:19:36;;;;;;;36.07;23.30;;;;;;;-0.25;63.57;101537.88;5051239;28;20079;-79
2021/01/20 09:22:02;;;;;;;33.40;19.93;;;;;;;-0.11;62.80;101530.66;5067709;28;20029;-80
2021/01/20 09:24:29;;;;;;;28.20;17.80;;;;;;;-0.02;62.28;101517.22;5051509;28;20071;-80
2021/01/20 09:26:54;;;;;;;29.27;18.07;;;;;;;0.09;62.42;101518.28;5034955;28;20044;-79
2021/01/20 09:29:22;;;;;;;29.77;18.23;;;;;;;0.08;61.83;101507.97;5051457;28;20036;-80
2021/01/20 09:31:48;;;;;;;32.60;19.33;;;;;;;0.31;62.36;101495.81;5051514;28;20495;-79
2021/01/20 09:34:13;;;;;;;32.00;19.80;;;;;;;0.26;60.99;101443.69;5050867;28;20049;-80
2021/01/20 09:36:38;;;;;;;28.80;19.20;;;;;;;0.76;60.78;101484.72;5067838;28;20025;-80
2021/01/20 09:39:04;;;;;;;33.60;18.33;;;;;;;0.82;60.07;101483.50;5051610;28;20064;-80
2021/01/20 09:41:29;;;;;;;32.93;19.50;;;;;;;1.10;58.67;101476.75;5051933;28;20510;-80
2021/01/20 09:43:55;;;;;;;32.63;18.90;;;;;;;1.25;58.40;101479.81;5053274;28;20064;-80
2021/01/20 09:46:21;;;;;;;31.30;18.57;;;;;;;1.35;57.69;101473.91;5053731;28;20029;-80
2021/01/20 09:48:47;;;;;;;31.73;19.57;;;;;;;1.48;57.22;101463.16;5053468;28;20159;-80
2021/01/20 09:51:13;;;;;;;33.17;19.00;;;;;;;1.54;58.04;101461.16;5053183;28;20483;-80
2021/01/20 09:53:38;;;;;;;28.93;18.07;;;;;;;1.65;57.09;101450.28;5053751;28;20029;-80
2021/01/20 09:56:04;;;;;;;32.97;18.17;;;;;;;1.74;56.88;101442.56;5053513;28;20500;-80
2021/01/20 09:58:30;;;;;;;30.80;19.43;;;;;;;1.90;56.49;101457.53;5052841;28;20036;-80
2021/01/20 10:00:55;;;;;;;31.77;19.73;;;;;;;1.90;56.62;101447.34;5053137;28;20029;-80
2021/01/20 10:03:21;;;;;;;31.90;18.97;;;;;;;2.03;56.84;101446.75;5053727;28;20111;-80
2021/01/20 10:05:48;;;;;;;30.30;18.80;;;;;;;2.17;57.06;101431.03;5053242;28;20100;-80
2021/01/20 10:08:13;;;;;;;33.77;18.93;;;;;;;2.21;56.07;101422.88;5053184;28;20021;-80
2021/01/20 10:10:39;;;;;;;30.60;18.03;;;;;;;2.01;56.60;101374.44;5053155;28;20036;-79
2021/01/20 10:13:04;;;;;;;31.53;20.47;;;;;;;2.41;55.82;101414.38;5051573;28;20546;-78
2021/01/20 10:15:30;;;;;;;31.63;19.47;;;;;;;2.56;56.08;101412.25;5053034;28;20025;-76
2021/01/20 10:17:56;;;;;;;31.13;19.53;;;;;;;2.59;55.58;101402.31;5052849;28;20025;-80
2021/01/20 10:20:23;;;;;;;30.93;18.30;;;;;;;2.72;57.22;101405.91;5052466;28;20029;-79
2021/01/20 10:22:48;;;;;;;33.60;18.87;;;;;;;2.63;56.54;101375.44;5051313;28;20025;-78
2021/01/20 10:25:14;;;;;;;33.13;18.17;;;;;;;2.81;54.91;101396.44;5052703;28;20033;-80
2021/01/20 10:27:39;;;;;;;30.40;17.93;;;;;;;2.85;55.14;101407.78;5051956;28;20029;-80
2021/01/20 10:30:05;;;;;;;26.97;16.67;;;;;;;2.84;53.58;101395.81;5051544;28;20087;-81
2021/01/20 10:32:31;;;;;;;23.77;15.30;;;;;;;2.82;54.02;101390.59;5054850;28;20036;-80
2021/01/20 10:34:57;;;;;;;26.33;16.47;;;;;;;2.82;53.58;101382.94;5052733;28;20077;-80
2021/01/20 10:37:22;;;;;;;27.83;17.47;;;;;;;2.87;54.75;101390.97;5053346;28;20102;-81
2021/01/20 10:39:47;;;;;;;24.67;16.57;;;;;;;2.89;54.88;101385.22;5070837;28;20032;-81
2021/01/20 10:42:13;;;;;;;25.77;16.13;;;;;;;2.80;55.48;101373.38;5071158;28;20017;-81
2021/01/20 10:44:38;;;;;;;28.87;17.03;;;;;;;2.79;55.48;101369.94;5069849;28;20029;-80
2021/01/20 10:47:04;;;;;;;27.50;17.10;;;;;;;2.88;55.73;101372.34;5054818;28;20024;-79
2021/01/20 10:49:29;;;;;;;30.00;19.70;;;;;;;2.88;55.67;101383.44;5050257;28;20056;-80
2021/01/20 10:51:55;;;;;;;32.73;21.20;;;;;;;2.70;55.13;101342.00;5050791;28;20024;-81
2021/01/20 10:54:20;;;;;;;26.20;17.73;;;;;;;2.99;54.32;101370.66;5051122;28;20028;-81
2021/01/20 10:56:46;;;;;;;29.43;19.10;;;;;;;3.08;53.79;101372.31;5050624;28;20033;-81
2021/01/20 10:59:11;;;;;;;28.83;17.43;;;;;;;3.15;53.73;101376.25;5051474;28;20063;-81
2021/01/20 11:01:37;;;;;;;31.37;19.50;;;;;;;3.23;53.22;101356.47;5051495;28;20032;-81
2021/01/20 11:04:03;;;;;;;24.37;15.87;;;;;;;3.32;52.90;101357.22;5050734;28;20029;-82
2021/01/20 11:06:28;;;;;;;23.37;13.97;;;;;;;3.34;51.78;101340.38;5052185;28;20025;-81
2021/01/20 11:08:54;;;;;;;25.53;15.17;;;;;;;3.42;51.71;101348.63;5051933;28;20430;-80
2021/01/20 11:11:19;;;;;;;22.10;13.97;;;;;;;3.46;52.01;101355.75;5050302;28;20125;-80
2021/01/20 11:13:45;;;;;;;24.27;14.37;;;;;;;3.43;52.27;101342.75;5050779;28;20025;-80
2021/01/20 11:16:11;;;;;;;23.23;14.33;;;;;;;3.57;52.14;101348.97;5050983;28;20032;-80